Etusivu
METAR-TAF:

METAR-TAF

Lentoasemat :

Palestine Municipal Airport

Palestine, Texas, Yhdysvallat

Leveyspiiri: 31-46-46N, Pituuspiiri: 095-42-22W, korkeus merenpinnasta: 129 m

Tämänhetkinen sää

Tämä raportti tehtiin 23 minuuttia sitten, kello 14.15 UTC
Tuuli 9 kn kaakosta puuskistuen 15 kn:hen
Lämpötila 26°C
Kosteus 84%
Ilmanpaine 1010 hPa
Näkyvyys: 11.3 km
Hajanaisia pilviä 1600 ft:n korkeudessa
Hajonneita pilviä 3000 ft:n korkeudessa
Pilvistä 3700 ft:n korkeudessa

METAR: KPSN 221415Z AUTO 14009G15KT 7SM SCT016 BKN030 OVC037 26/23 A2982 RMK AO2 T02650238

Aika: 09:38 (14:38 UTC)


TAF: puuttuu

Säähavainnot ja -ennusteet yli 4000 lentoasemalta (METAR- ja TAF-raportit).

Käytössä olevat sääasemat on merkitty karttaan keltaisilla ja punaisilla pisteillä.

Aseta hiiri pisteen päälle nähdäksesi sääaseman nimen.

Klikkaa sitten nähdäksesi säähavainnot ja -ennusteet.

Kartan vaihtaminen: klikkaa mustalla rastilla varustettuja vihreitä pisteitä, niin voit zoomata sisään; viivalla varustettua vihreää pistettä, niin voit zoomata ulos tai vihreitä nuolia, niin pääset viereisille kartoille.


METAR-TAF: